Time;durP1;ratioP1;P1;durP2;ratioP2;P2;SDS_P1;SDS_P2;PMS_P1;PMS_P2;Temp;Humidity;BMP_temperature;BMP_pressure;BME280_temperature;BME280_humidity;BME280_pressure;Samples;Min_cycle;Max_cycle;Signal;HPM_P1;HPM_P2
2022/05/02 00:00:26;;;;;;;11.50;8.75;;;;;;;;;;4992424;28;20137;-79
2022/05/02 00:02:52;;;;;;;12.18;8.98;;;;;;;;;;4988836;28;20033;-82
2022/05/02 00:05:17;;;;;;;13.75;9.05;;;;;;;;;;5012225;28;20395;-83
2022/05/02 00:07:43;;;;;;;14.95;9.50;;;;;;;;;;5012532;28;20491;-82
2022/05/02 00:10:09;;;;;;;13.45;9.52;;;;;;;;;;5011171;28;20041;-84
2022/05/02 00:12:34;;;;;;;14.40;9.50;;;;;;;;;;5011068;28;20484;-79
2022/05/02 00:14:59;;;;;;;13.60;8.88;;;;;;;;;;5011070;28;20029;-84
2022/05/02 00:18:10;;;;;;;12.82;9.45;;;;;;;;;;5010395;28;20402;-83
2022/05/02 00:20:11;;;;;;;13.40;9.07;;;;;;;;;;4996713;28;20413;-81
2022/05/02 00:22:36;;;;;;;13.10;10.15;;;;;;;;;;5009404;28;20464;-84
2022/05/02 00:25:02;;;;;;;14.25;10.25;;;;;;;;;;5002243;28;20489;-82
2022/05/02 00:27:27;;;;;;;15.10;10.32;;;;;;;;;;5006195;28;20435;-82
2022/05/02 00:29:53;;;;;;;14.93;11.13;;;;;;;;;;5005178;28;20060;-83
2022/05/02 00:32:18;;;;;;;16.95;11.23;;;;;;;;;;4982550;28;20500;-83
2022/05/02 00:34:43;;;;;;;15.63;9.85;;;;;;;;;;4985536;28;20061;-82
2022/05/02 00:37:09;;;;;;;19.33;10.73;;;;;;;;;;4997849;28;20046;-82
2022/05/02 00:39:34;;;;;;;15.00;10.73;;;;;;;;;;5012663;28;20033;-81
2022/05/02 00:41:59;;;;;;;14.90;10.80;;;;;;;;;;4998367;28;20026;-83
2022/05/02 00:44:25;;;;;;;14.07;11.10;;;;;;;;;;4999723;28;20266;-79
2022/05/02 00:46:51;;;;;;;14.65;10.63;;;;;;;;;;5002097;28;20057;-80
2022/05/02 00:49:16;;;;;;;18.65;10.82;;;;;;;;;;5008840;28;20030;-84
2022/05/02 00:51:41;;;;;;;16.52;10.35;;;;;;;;;;5005179;28;20026;-81
2022/05/02 00:54:07;;;;;;;13.20;10.02;;;;;;;;;;4999016;28;20134;-81
2022/05/02 00:56:33;;;;;;;15.85;11.13;;;;;;;;;;5004153;28;20357;-79
2022/05/02 00:59:00;;;;;;;14.82;10.68;;;;;;;;;;4995826;28;20596;-79
2022/05/02 01:01:25;;;;;;;14.48;10.65;;;;;;;;;;4998571;28;20022;-80
2022/05/02 01:03:50;;;;;;;13.68;10.30;;;;;;;;;;4997225;28;20439;-80
2022/05/02 01:09:00;;;;;;;15.50;10.45;;;;;;;;;;4996441;28;20145;-80
2022/05/02 01:11:25;;;;;;;16.67;10.32;;;;;;;;;;5007994;28;20139;-79
2022/05/02 01:13:51;;;;;;;14.65;10.50;;;;;;;;;;5001392;28;20034;-79
2022/05/02 01:16:23;;;;;;;14.70;10.60;;;;;;;;;;4990092;28;20455;-79
2022/05/02 01:18:51;;;;;;;14.95;11.05;;;;;;;;;;5009005;28;20026;-82
2022/05/02 01:21:22;;;;;;;15.35;10.30;;;;;;;;;;5002433;28;20022;-82
2022/05/02 01:23:50;;;;;;;15.20;10.57;;;;;;;;;;4992290;28;20480;-81
2022/05/02 01:26:16;;;;;;;16.00;10.70;;;;;;;;;;4980033;28;20117;-82
2022/05/02 01:28:46;;;;;;;14.98;11.45;;;;;;;;;;4981270;28;20131;-81
2022/05/02 01:31:12;;;;;;;15.88;11.40;;;;;;;;;;4995480;28;20040;-82
2022/05/02 01:33:38;;;;;;;19.95;12.38;;;;;;;;;;4985559;28;20030;-82
2022/05/02 01:36:04;;;;;;;14.38;10.82;;;;;;;;;;4998251;28;20077;-82
2022/05/02 01:38:29;;;;;;;18.20;11.73;;;;;;;;;;4999181;28;20069;-80
2022/05/02 01:40:55;;;;;;;16.35;11.90;;;;;;;;;;4980572;28;20550;-83
2022/05/02 01:43:20;;;;;;;15.52;11.43;;;;;;;;;;4999370;28;20342;-82
2022/05/02 01:45:46;;;;;;;17.50;11.75;;;;;;;;;;4998635;28;20088;-81
2022/05/02 01:48:12;;;;;;;16.38;11.77;;;;;;;;;;5000351;28;20042;-81
2022/05/02 01:50:37;;;;;;;17.08;11.73;;;;;;;;;;5018381;28;20041;-82
2022/05/02 01:53:03;;;;;;;18.17;12.07;;;;;;;;;;5005081;28;20029;-78
2022/05/02 01:55:28;;;;;;;15.02;11.43;;;;;;;;;;4984958;28;20021;-82
2022/05/02 01:57:53;;;;;;;17.00;11.63;;;;;;;;;;5008669;28;20044;-83
2022/05/02 02:00:19;;;;;;;20.98;10.90;;;;;;;;;;4996935;28;20026;-82
2022/05/02 02:02:44;;;;;;;15.48;11.55;;;;;;;;;;4977583;28;20038;-81
2022/05/02 02:07:54;;;;;;;15.20;10.75;;;;;;;;;;4998586;28;20045;-81
2022/05/02 02:10:20;;;;;;;14.88;10.48;;;;;;;;;;4998210;28;20093;-81
2022/05/02 02:12:45;;;;;;;16.30;11.43;;;;;;;;;;4998814;28;20037;-82
2022/05/02 02:15:14;;;;;;;16.85;11.82;;;;;;;;;;4980103;28;20436;-82
2022/05/02 02:17:41;;;;;;;18.98;12.60;;;;;;;;;;4980822;28;20030;-82
2022/05/02 02:20:07;;;;;;;16.67;11.80;;;;;;;;;;4998005;28;20038;-82
2022/05/02 02:22:33;;;;;;;18.55;12.18;;;;;;;;;;4988599;28;20080;-82
2022/05/02 02:24:59;;;;;;;16.73;12.45;;;;;;;;;;5001400;28;20034;-82
2022/05/02 02:27:24;;;;;;;17.23;12.15;;;;;;;;;;5005585;28;20034;-82
2022/05/02 02:29:50;;;;;;;17.75;12.32;;;;;;;;;;4997761;28;20042;-81
2022/05/02 02:32:15;;;;;;;17.67;12.25;;;;;;;;;;4998441;28;20026;-82
2022/05/02 02:34:40;;;;;;;17.10;11.90;;;;;;;;;;4998607;28;20077;-82
2022/05/02 02:37:06;;;;;;;16.00;10.98;;;;;;;;;;4998303;28;20038;-80
2022/05/02 02:39:31;;;;;;;16.95;12.02;;;;;;;;;;4998244;28;20030;-82
2022/05/02 02:41:56;;;;;;;18.40;11.77;;;;;;;;;;4996905;28;20408;-81
2022/05/02 02:44:22;;;;;;;16.20;12.05;;;;;;;;;;5001059;28;20034;-82
2022/05/02 02:46:47;;;;;;;17.33;11.55;;;;;;;;;;5002563;28;20023;-82
2022/05/02 02:49:12;;;;;;;18.08;12.18;;;;;;;;;;5010545;28;20388;-80
2022/05/02 02:51:38;;;;;;;18.73;12.50;;;;;;;;;;5008934;28;20022;-82
2022/05/02 02:54:03;;;;;;;20.73;12.25;;;;;;;;;;5014281;28;20559;-81
2022/05/02 02:56:28;;;;;;;17.95;12.82;;;;;;;;;;5008960;28;20420;-82
2022/05/02 02:58:54;;;;;;;17.17;12.45;;;;;;;;;;5007923;28;20547;-82
2022/05/02 03:01:19;;;;;;;19.35;12.98;;;;;;;;;;5002635;28;20485;-80
2022/05/02 03:03:44;;;;;;;21.58;13.27;;;;;;;;;;4984351;28;20647;-82
2022/05/02 03:06:10;;;;;;;17.73;13.27;;;;;;;;;;5001984;28;20030;-81
2022/05/02 03:08:36;;;;;;;19.20;13.95;;;;;;;;;;5002290;28;20218;-82
2022/05/02 03:11:02;;;;;;;18.60;14.15;;;;;;;;;;5001360;28;20661;-82
2022/05/02 03:13:28;;;;;;;20.50;13.88;;;;;;;;;;5002004;28;20018;-82
2022/05/02 03:15:54;;;;;;;18.38;13.10;;;;;;;;;;5001768;28;20038;-81
2022/05/02 03:18:20;;;;;;;16.77;11.70;;;;;;;;;;5003035;28;20085;-82
2022/05/02 03:20:45;;;;;;;16.90;11.57;;;;;;;;;;5002722;28;20027;-80
2022/05/02 03:23:11;;;;;;;15.25;11.68;;;;;;;;;;5013215;28;20037;-81
2022/05/02 03:25:36;;;;;;;17.85;11.77;;;;;;;;;;5013399;28;20037;-82
2022/05/02 03:28:01;;;;;;;18.27;11.82;;;;;;;;;;5010806;28;20050;-81
2022/05/02 03:30:27;;;;;;;19.30;13.15;;;;;;;;;;5003096;28;20030;-81
2022/05/02 03:32:52;;;;;;;18.35;13.40;;;;;;;;;;5003659;28;20035;-82
2022/05/02 03:35:17;;;;;;;17.10;12.40;;;;;;;;;;5003218;28;20057;-82
2022/05/02 03:37:43;;;;;;;21.05;12.45;;;;;;;;;;5003858;28;20053;-82
2022/05/02 03:40:08;;;;;;;17.42;12.25;;;;;;;;;;4986411;28;20033;-82
2022/05/02 03:42:35;;;;;;;16.63;12.02;;;;;;;;;;4986680;28;20060;-82
2022/05/02 03:45:01;;;;;;;20.33;13.30;;;;;;;;;;5003568;28;20030;-81
2022/05/02 03:47:26;;;;;;;18.85;11.95;;;;;;;;;;5006727;28;20113;-80
2022/05/02 03:49:52;;;;;;;17.58;12.57;;;;;;;;;;5019681;28;20485;-82
2022/05/02 03:52:17;;;;;;;18.92;12.00;;;;;;;;;;5021387;28;20030;-82
2022/05/02 03:54:43;;;;;;;19.77;12.73;;;;;;;;;;5017865;28;20049;-80
2022/05/02 03:57:08;;;;;;;18.70;11.93;;;;;;;;;;5020993;28;20086;-80
2022/05/02 03:59:33;;;;;;;17.65;12.57;;;;;;;;;;5013519;28;20026;-79
2022/05/02 04:01:59;;;;;;;18.75;12.32;;;;;;;;;;5010507;28;20046;-81
2022/05/02 04:04:25;;;;;;;16.30;11.60;;;;;;;;;;5008341;28;20062;-81
2022/05/02 04:06:50;;;;;;;16.13;11.85;;;;;;;;;;4992621;28;20037;-80
2022/05/02 04:09:16;;;;;;;17.30;12.30;;;;;;;;;;5007131;28;20038;-80
2022/05/02 04:11:41;;;;;;;17.90;12.07;;;;;;;;;;5010276;28;20006;-80
2022/05/02 04:14:07;;;;;;;19.67;11.98;;;;;;;;;;5014626;28;20006;-81
2022/05/02 04:16:32;;;;;;;17.83;11.65;;;;;;;;;;5014120;28;20018;-79
2022/05/02 04:18:57;;;;;;;15.48;11.07;;;;;;;;;;4999483;28;20033;-78
2022/05/02 04:21:23;;;;;;;20.25;12.50;;;;;;;;;;5016127;28;20026;-82
2022/05/02 04:23:49;;;;;;;15.68;11.73;;;;;;;;;;5023661;28;20042;-82
2022/05/02 04:26:14;;;;;;;18.05;11.75;;;;;;;;;;5022633;28;20030;-83
2022/05/02 04:28:39;;;;;;;18.90;13.30;;;;;;;;;;5017945;28;20022;-81
2022/05/02 04:31:05;;;;;;;18.23;12.10;;;;;;;;;;5001672;28;20073;-80
2022/05/02 04:33:31;;;;;;;17.08;12.25;;;;;;;;;;4994730;28;20065;-80
2022/05/02 04:35:56;;;;;;;18.40;12.57;;;;;;;;;;4996509;28;20030;-79
2022/05/02 04:38:22;;;;;;;17.73;11.80;;;;;;;;;;5001723;28;20078;-80
2022/05/02 04:40:47;;;;;;;18.48;12.88;;;;;;;;;;4981978;28;20026;-79
2022/05/02 04:43:13;;;;;;;17.13;11.90;;;;;;;;;;4998675;28;20473;-79
2022/05/02 04:45:39;;;;;;;18.95;11.90;;;;;;;;;;4997514;28;20022;-80
2022/05/02 04:48:05;;;;;;;17.65;11.73;;;;;;;;;;4997727;28;20030;-80
2022/05/02 04:50:30;;;;;;;17.33;12.43;;;;;;;;;;4996797;28;20035;-79
2022/05/02 04:52:56;;;;;;;18.85;12.13;;;;;;;;;;4996514;28;20465;-79
2022/05/02 04:55:22;;;;;;;17.35;12.93;;;;;;;;;;4995869;28;20062;-82
2022/05/02 04:57:47;;;;;;;20.52;12.38;;;;;;;;;;5000715;28;20025;-79
2022/05/02 05:00:14;;;;;;;18.63;12.25;;;;;;;;;;4997022;28;20045;-80
2022/05/02 05:02:40;;;;;;;17.15;12.85;;;;;;;;;;4981063;28;20397;-81
2022/05/02 05:05:07;;;;;;;16.95;12.05;;;;;;;;;;4997715;28;20042;-80
2022/05/02 05:07:32;;;;;;;21.48;14.15;;;;;;;;;;4978625;28;20025;-81
2022/05/02 05:09:58;;;;;;;18.35;12.10;;;;;;;;;;4996100;28;20027;-80
2022/05/02 05:12:39;;;;;;;16.73;12.57;;;;;;;;;;4996145;28;20046;-81
2022/05/02 05:18:56;;;;;;;15.75;11.82;;;;;;;;;;4997527;28;20089;-83
2022/05/02 05:22:06;;;;;;;17.13;11.38;;;;;;;;;;4980838;28;20471;-80
2022/05/02 05:24:42;;;;;;;20.15;12.75;;;;;;;;;;4943089;28;20037;-80
2022/05/02 05:27:23;;;;;;;19.02;13.02;;;;;;;;;;5004078;28;20068;-81
2022/05/02 05:30:08;;;;;;;21.83;13.60;;;;;;;;;;4995802;28;20030;-82
2022/05/02 05:32:46;;;;;;;19.17;13.65;;;;;;;;;;4995206;28;20506;-81
2022/05/02 05:35:21;;;;;;;17.70;13.48;;;;;;;;;;4976029;28;20033;-82
2022/05/02 05:38:03;;;;;;;20.67;14.00;;;;;;;;;;4993976;28;20026;-79
2022/05/02 05:40:44;;;;;;;19.43;13.60;;;;;;;;;;4997370;28;20015;-81
2022/05/02 05:43:27;;;;;;;18.40;14.82;;;;;;;;;;4996124;28;20621;-79
2022/05/02 05:46:11;;;;;;;23.63;14.35;;;;;;;;;;4994811;28;20018;-79
2022/05/02 05:49:18;;;;;;;24.17;14.73;;;;;;;;;;5009610;28;20113;-79
2022/05/02 05:51:43;;;;;;;23.52;14.73;;;;;;;;;;4959708;28;20034;-80
2022/05/02 05:54:33;;;;;;;23.10;15.15;;;;;;;;;;4990102;28;20034;-80
2022/05/02 05:57:20;;;;;;;20.15;14.25;;;;;;;;;;5005930;28;20026;-84
2022/05/02 05:59:59;;;;;;;20.00;14.48;;;;;;;;;;5008683;28;20077;-85
2022/05/02 06:02:50;;;;;;;25.05;14.82;;;;;;;;;;5001711;28;20057;-85
2022/05/02 06:05:17;;;;;;;28.02;15.50;;;;;;;;;;4983785;28;20038;-84
2022/05/02 06:07:44;;;;;;;26.38;16.15;;;;;;;;;;5001340;28;20385;-85
2022/05/02 06:10:10;;;;;;;24.73;15.90;;;;;;;;;;5001168;28;20030;-85
2022/05/02 06:12:37;;;;;;;25.13;17.40;;;;;;;;;;5000933;28;20042;-85
2022/05/02 06:20:39;;;;;;;25.17;16.77;;;;;;;;;;5008691;28;20037;-85
2022/05/02 06:23:08;;;;;;;26.33;17.10;;;;;;;;;;5000408;28;20287;-87
2022/05/02 06:25:36;;;;;;;58.88;21.85;;;;;;;;;;5019486;28;20487;-88
2022/05/02 06:28:03;;;;;;;34.88;18.63;;;;;;;;;;5019625;28;20033;-86
2022/05/02 06:30:29;;;;;;;30.67;18.15;;;;;;;;;;4996406;28;20026;-86
2022/05/02 06:32:58;;;;;;;24.33;17.00;;;;;;;;;;5018088;28;20059;-86
2022/05/02 06:35:31;;;;;;;22.65;16.45;;;;;;;;;;5030544;28;20464;-85
2022/05/02 06:38:23;;;;;;;23.70;15.23;;;;;;;;;;5026788;28;20025;-85
2022/05/02 06:41:06;;;;;;;20.30;14.88;;;;;;;;;;5039138;28;20084;-79
2022/05/02 06:43:45;;;;;;;21.08;14.50;;;;;;;;;;5014246;28;20081;-79
2022/05/02 06:46:23;;;;;;;20.02;14.10;;;;;;;;;;5025252;28;20029;-79
2022/05/02 06:48:52;;;;;;;21.65;15.15;;;;;;;;;;5016396;28;20045;-80
2022/05/02 06:51:31;;;;;;;20.77;15.02;;;;;;;;;;5030231;28;20053;-80
2022/05/02 06:54:34;;;;;;;23.52;15.55;;;;;;;;;;5003866;28;20018;-79
2022/05/02 06:57:15;;;;;;;24.00;13.55;;;;;;;;;;5007347;28;20093;-79
2022/05/02 07:00:02;;;;;;;22.08;14.40;;;;;;;;;;5007019;28;20022;-81
2022/05/02 07:02:47;;;;;;;20.77;14.05;;;;;;;;;;5023655;28;20060;-81
2022/05/02 07:05:56;;;;;;;15.63;12.20;;;;;;;;;;5015807;28;20030;-82
2022/05/02 07:08:29;;;;;;;17.75;12.55;;;;;;;;;;5021320;28;20025;-81
2022/05/02 07:11:01;;;;;;;17.13;12.85;;;;;;;;;;5018004;28;20029;-80
2022/05/02 07:13:35;;;;;;;;;;;;;;;;;;5027795;28;20041;-78
2022/05/02 07:16:21;;;;;;;19.25;12.13;;;;;;;;;;5022471;28;19936;-78
2022/05/02 07:19:20;;;;;;;16.73;12.18;;;;;;;;;;5014752;28;20015;-79
2022/05/02 07:21:56;;;;;;;13.85;11.60;;;;;;;;;;5012766;28;20026;-80
2022/05/02 07:24:49;;;;;;;16.52;12.32;;;;;;;;;;4989634;28;20026;-80
2022/05/02 07:27:36;;;;;;;15.23;11.15;;;;;;;;;;4996067;28;20022;-80
2022/05/02 07:30:02;;;;;;;19.13;12.52;;;;;;;;;;5005346;28;20042;-80
2022/05/02 07:32:29;;;;;;;18.10;12.65;;;;;;;;;;5013415;28;20026;-80
2022/05/02 07:34:56;;;;;;;14.38;12.02;;;;;;;;;;5010448;28;20427;-81
2022/05/02 07:37:22;;;;;;;17.83;11.73;;;;;;;;;;5012681;28;20018;-83
2022/05/02 07:39:51;;;;;;;15.55;11.68;;;;;;;;;;5013478;28;20022;-80
2022/05/02 07:42:18;;;;;;;18.20;12.60;;;;;;;;;;5012130;28;20014;-80
2022/05/02 07:44:46;;;;;;;15.35;11.80;;;;;;;;;;5013143;28;20053;-80
2022/05/02 07:47:15;;;;;;;17.75;12.63;;;;;;;;;;5011384;28;20018;-80
2022/05/02 07:49:45;;;;;;;18.17;12.82;;;;;;;;;;5009514;28;20393;-80
2022/05/02 07:52:16;;;;;;;17.95;12.73;;;;;;;;;;4997389;28;20062;-80
2022/05/02 07:54:46;;;;;;;14.32;11.43;;;;;;;;;;5007066;28;20077;-81
2022/05/02 07:57:13;;;;;;;15.65;12.70;;;;;;;;;;5009112;28;20034;-81
2022/05/02 07:59:40;;;;;;;17.30;12.25;;;;;;;;;;5014446;28;20042;-80
2022/05/02 08:02:06;;;;;;;15.18;11.32;;;;;;;;;;4980401;28;20030;-81
2022/05/02 08:04:32;;;;;;;15.77;11.98;;;;;;;;;;4982460;28;20033;-81
2022/05/02 08:07:10;;;;;;;14.98;11.48;;;;;;;;;;5016759;28;20073;-81
2022/05/02 08:10:10;;;;;;;16.83;11.93;;;;;;;;;;5004250;28;20053;-79
2022/05/02 08:12:55;;;;;;;15.55;11.75;;;;;;;;;;5014926;28;20022;-79
2022/05/02 08:15:38;;;;;;;15.32;11.73;;;;;;;;;;4997743;28;20452;-81
2022/05/02 08:18:17;;;;;;;15.82;12.27;;;;;;;;;;4981834;28;20038;-80
2022/05/02 08:20:55;;;;;;;14.10;11.43;;;;;;;;;;4998394;28;20109;-81
2022/05/02 08:29:21;;;;;;;15.13;11.20;;;;;;;;;;5016776;28;20083;-80
2022/05/02 08:31:54;;;;;;;14.25;10.75;;;;;;;;;;5000288;28;20025;-80
2022/05/02 08:34:38;;;;;;;18.95;11.32;;;;;;;;;;5017687;28;20101;-81
2022/05/02 08:37:27;;;;;;;14.07;10.93;;;;;;;;;;5016879;28;20484;-80
2022/05/02 08:40:04;;;;;;;13.85;11.13;;;;;;;;;;5018181;28;20029;-81
2022/05/02 08:42:46;;;;;;;13.95;10.55;;;;;;;;;;5017217;28;20029;-81
2022/05/02 08:45:27;;;;;;;;;;;;;;;;;;5006043;28;20026;-80
2022/05/02 08:48:13;;;;;;;15.40;10.20;;;;;;;;;;4998264;28;19920;-81
2022/05/02 08:50:56;;;;;;;15.23;9.77;;;;;;;;;;4998332;28;20041;-81
2022/05/02 08:53:40;;;;;;;15.70;10.00;;;;;;;;;;4997399;28;20022;-80
2022/05/02 08:56:27;;;;;;;13.68;10.63;;;;;;;;;;5005481;28;20100;-81
2022/05/02 08:59:08;;;;;;;14.63;11.55;;;;;;;;;;5004573;28;20030;-81
2022/05/02 09:01:42;;;;;;;12.75;10.38;;;;;;;;;;4997455;28;20031;-80
2022/05/02 09:04:49;;;;;;;21.83;11.38;;;;;;;;;;4997022;28;20109;-81
2022/05/02 09:07:52;;;;;;;13.50;10.25;;;;;;;;;;4997441;28;20504;-81
2022/05/02 09:10:23;;;;;;;12.48;9.52;;;;;;;;;;4995738;28;20038;-80
2022/05/02 09:13:19;;;;;;;13.50;9.30;;;;;;;;;;5005462;28;20025;-80
2022/05/02 09:16:03;;;;;;;10.63;7.95;;;;;;;;;;4989438;28;20014;-81
2022/05/02 09:18:54;;;;;;;11.35;8.50;;;;;;;;;;4981004;28;20077;-80
2022/05/02 09:21:41;;;;;;;13.80;8.40;;;;;;;;;;5001300;28;20061;-80
2022/05/02 09:24:44;;;;;;;11.93;7.72;;;;;;;;;;5007582;28;20492;-81
2022/05/02 09:27:43;;;;;;;11.20;7.28;;;;;;;;;;5008077;28;20456;-80
2022/05/02 09:30:30;;;;;;;10.73;7.43;;;;;;;;;;5017243;28;20049;-81
2022/05/02 09:33:10;;;;;;;11.52;7.72;;;;;;;;;;5017417;28;20021;-81
2022/05/02 09:35:51;;;;;;;11.15;7.90;;;;;;;;;;5015484;28;20449;-81
2022/05/02 09:38:29;;;;;;;12.38;8.20;;;;;;;;;;4969226;28;20026;-80
2022/05/02 09:41:06;;;;;;;9.88;8.02;;;;;;;;;;4990205;28;20056;-80
2022/05/02 09:50:02;;;;;;;9.18;7.25;;;;;;;;;;5023733;28;20041;-79
2022/05/02 09:52:31;;;;;;;;;;;;;;;;;;5018142;28;20037;-78
2022/05/02 09:58:16;;;;;;;9.65;7.65;;;;;;;;;;5017117;28;20092;-79
2022/05/02 10:01:07;;;;;;;8.73;7.40;;;;;;;;;;5034315;28;20029;-82
2022/05/02 10:03:37;;;;;;;8.40;6.40;;;;;;;;;;5008703;28;20094;-79
2022/05/02 10:06:07;;;;;;;8.52;6.20;;;;;;;;;;5007978;28;20263;-83
2022/05/02 10:08:52;;;;;;;9.40;6.18;;;;;;;;;;5027943;28;20022;-82
2022/05/02 10:11:34;;;;;;;9.70;7.22;;;;;;;;;;4988516;28;20037;-81
2022/05/02 10:14:37;;;;;;;8.97;6.90;;;;;;;;;;5014933;28;20041;-80
2022/05/02 10:17:12;;;;;;;8.07;6.20;;;;;;;;;;4999396;28;20018;-81
2022/05/02 10:19:56;;;;;;;8.52;7.03;;;;;;;;;;5016749;28;20049;-82
2022/05/02 10:23:00;;;;;;;9.10;7.40;;;;;;;;;;5024544;28;20018;-82
2022/05/02 10:25:28;;;;;;;9.13;6.80;;;;;;;;;;5015484;28;20022;-81
2022/05/02 10:28:38;;;;;;;11.38;6.88;;;;;;;;;;5024665;28;20049;-81
2022/05/02 10:31:16;;;;;;;10.82;7.35;;;;;;;;;;4955066;29;20070;-82
2022/05/02 10:33:48;;;;;;;8.30;6.93;;;;;;;;;;4955599;29;20032;-81
2022/05/02 10:36:15;;;;;;;9.45;6.45;;;;;;;;;;4984461;28;20030;-82
2022/05/02 10:39:04;;;;;;;7.82;6.30;;;;;;;;;;4998609;28;20474;-83
2022/05/02 10:41:43;;;;;;;8.57;5.80;;;;;;;;;;4998059;28;20527;-83
2022/05/02 10:44:11;;;;;;;12.50;4.97;;;;;;;;;;4997248;28;20089;-83
2022/05/02 10:46:41;;;;;;;6.68;5.50;;;;;;;;;;4997877;28;20125;-83
2022/05/02 10:49:32;;;;;;;5.55;4.22;;;;;;;;;;4998366;28;20033;-83
2022/05/02 10:52:16;;;;;;;7.82;5.43;;;;;;;;;;4997837;28;20022;-83
2022/05/02 10:54:55;;;;;;;8.43;6.05;;;;;;;;;;4984309;28;20034;-84
2022/05/02 10:57:38;;;;;;;7.03;5.70;;;;;;;;;;4980351;28;20061;-84
2022/05/02 11:00:06;;;;;;;8.60;5.90;;;;;;;;;;4996597;28;20057;-81
2022/05/02 11:03:19;;;;;;;9.90;6.63;;;;;;;;;;4997761;28;20046;-83
2022/05/02 11:06:11;;;;;;;9.60;5.93;;;;;;;;;;4943454;29;20074;-83
2022/05/02 11:08:47;;;;;;;7.88;5.05;;;;;;;;;;5013681;28;20060;-83
2022/05/02 11:11:33;;;;;;;9.20;5.32;;;;;;;;;;5018307;28;20057;-83
2022/05/02 11:14:25;;;;;;;6.72;4.70;;;;;;;;;;5008726;28;20034;-81
2022/05/02 11:17:16;;;;;;;5.13;4.00;;;;;;;;;;5017006;28;20044;-81
2022/05/02 11:23:02;;;;;;;15.85;5.30;;;;;;;;;;5018290;28;20072;-81
2022/05/02 11:25:35;;;;;;;6.50;4.10;;;;;;;;;;4995570;28;20028;-81
2022/05/02 11:28:22;;;;;;;7.70;4.43;;;;;;;;;;4996860;28;20030;-79
2022/05/02 11:31:23;;;;;;;5.10;4.35;;;;;;;;;;5018838;28;20083;-81
2022/05/02 11:34:17;;;;;;;5.20;4.53;;;;;;;;;;4992657;28;20046;-81
2022/05/02 11:36:53;;;;;;;4.70;3.70;;;;;;;;;;4993587;28;20034;-84
2022/05/02 11:39:45;;;;;;;6.10;3.45;;;;;;;;;;4978480;28;20120;-83
2022/05/02 11:42:15;;;;;;;10.20;4.43;;;;;;;;;;4988589;28;20046;-83
2022/05/02 11:45:02;;;;;;;4.68;3.60;;;;;;;;;;4998591;28;20029;-81
2022/05/02 11:47:57;;;;;;;4.53;3.78;;;;;;;;;;5019800;28;20026;-80
2022/05/02 11:50:27;;;;;;;5.97;4.13;;;;;;;;;;5001123;28;20105;-81
2022/05/02 11:52:53;;;;;;;4.43;3.92;;;;;;;;;;5018995;28;20022;-80
2022/05/02 11:55:27;;;;;;;5.60;3.80;;;;;;;;;;5016100;28;20037;-81
2022/05/02 11:58:03;;;;;;;5.50;4.30;;;;;;;;;;4994358;28;20022;-81
2022/05/02 12:00:34;;;;;;;7.93;4.50;;;;;;;;;;5015774;28;20514;-81
2022/05/02 12:03:24;;;;;;;6.57;4.18;;;;;;;;;;5014513;28;20029;-80
2022/05/02 12:06:04;;;;;;;5.30;3.97;;;;;;;;;;5016455;28;20030;-80
2022/05/02 12:08:35;;;;;;;16.00;4.03;;;;;;;;;;5012973;28;20033;-80
2022/05/02 12:11:11;;;;;;;6.10;3.80;;;;;;;;;;4982372;28;20030;-79
2022/05/02 12:13:38;;;;;;;5.22;3.85;;;;;;;;;;4999837;28;20033;-82
2022/05/02 12:16:13;;;;;;;5.75;3.90;;;;;;;;;;5009377;28;20477;-82
2022/05/02 12:18:44;;;;;;;5.70;4.00;;;;;;;;;;4984635;28;20030;-82
2022/05/02 12:21:15;;;;;;;4.97;3.70;;;;;;;;;;5003252;28;20073;-80
2022/05/02 12:23:41;;;;;;;6.97;4.47;;;;;;;;;;5016533;28;20024;-81
2022/05/02 12:26:28;;;;;;;6.40;4.13;;;;;;;;;;5009621;28;20029;-83
2022/05/02 12:29:01;;;;;;;8.50;4.00;;;;;;;;;;5009558;28;20037;-80
2022/05/02 12:31:29;;;;;;;4.88;4.03;;;;;;;;;;4998919;28;20044;-79
2022/05/02 12:34:00;;;;;;;6.00;3.75;;;;;;;;;;5016901;28;20022;-82
2022/05/02 12:36:34;;;;;;;5.07;3.70;;;;;;;;;;4984857;28;20034;-83
2022/05/02 12:39:05;;;;;;;4.80;4.15;;;;;;;;;;5010535;28;20032;-82
2022/05/02 12:41:44;;;;;;;5.28;3.58;;;;;;;;;;5016918;28;20025;-80
2022/05/02 12:44:12;;;;;;;6.38;3.22;;;;;;;;;;5009606;28;20026;-81
2022/05/02 12:46:39;;;;;;;3.72;3.10;;;;;;;;;;5016505;28;20025;-80
2022/05/02 12:49:06;;;;;;;4.85;3.70;;;;;;;;;;4998897;28;20072;-81
2022/05/02 12:51:32;;;;;;;3.97;3.22;;;;;;;;;;5008290;28;20480;-80
2022/05/02 12:54:12;;;;;;;5.18;3.30;;;;;;;;;;5015078;28;20487;-81
2022/05/02 13:02:38;;;;;;;7.75;3.67;;;;;;;;;;4978690;28;20514;-82
2022/05/02 13:05:18;;;;;;;5.32;3.75;;;;;;;;;;4998248;28;20408;-81
2022/05/02 13:07:49;;;;;;;4.30;3.40;;;;;;;;;;5003580;28;20411;-83
2022/05/02 13:10:26;;;;;;;4.43;3.50;;;;;;;;;;4994677;28;20033;-82
2022/05/02 13:13:04;;;;;;;4.22;3.63;;;;;;;;;;4993030;28;20031;-81
2022/05/02 13:15:33;;;;;;;5.60;3.72;;;;;;;;;;4994358;28;20034;-81
2022/05/02 13:18:01;;;;;;;3.85;3.15;;;;;;;;;;5004605;28;20085;-85
2022/05/02 13:20:29;;;;;;;4.45;3.38;;;;;;;;;;4999142;28;20030;-81
2022/05/02 13:22:58;;;;;;;6.25;3.78;;;;;;;;;;5017516;28;20029;-81
2022/05/02 13:26:05;;;;;;;6.65;3.00;;;;;;;;;;5016612;28;20029;-81
2022/05/02 13:28:58;;;;;;;5.40;3.80;;;;;;;;;;4999438;28;20034;-81
2022/05/02 13:31:56;;;;;;;6.45;3.40;;;;;;;;;;4979176;28;20030;-81
2022/05/02 13:34:31;;;;;;;4.78;3.85;;;;;;;;;;5000321;28;20080;-81
2022/05/02 13:37:35;;;;;;;6.68;4.20;;;;;;;;;;4986810;28;20057;-81
2022/05/02 13:40:09;;;;;;;5.28;4.10;;;;;;;;;;4990665;28;20052;-80
2022/05/02 13:43:02;;;;;;;5.90;3.45;;;;;;;;;;4995912;28;20049;-80
2022/05/02 13:45:41;;;;;;;5.70;3.75;;;;;;;;;;5013594;28;20052;-83
2022/05/02 13:48:14;;;;;;;5.10;3.75;;;;;;;;;;5004041;28;20030;-81
2022/05/02 13:51:19;;;;;;;5.43;3.33;;;;;;;;;;4999184;28;20436;-80
2022/05/02 13:53:49;;;;;;;6.03;4.38;;;;;;;;;;4984622;28;20069;-83
2022/05/02 13:56:32;;;;;;;4.63;3.63;;;;;;;;;;4997870;28;20037;-82
2022/05/02 13:59:23;;;;;;;3.80;3.40;;;;;;;;;;4981841;28;20031;-80
2022/05/02 14:02:10;;;;;;;4.70;3.47;;;;;;;;;;4991580;28;20036;-80
2022/05/02 14:07:12;;;;;;;4.90;3.97;;;;;;;;;;5016586;28;20596;-80
2022/05/02 14:09:49;;;;;;;3.88;3.17;;;;;;;;;;5013357;28;20104;-79
2022/05/02 14:12:23;;;;;;;6.43;3.33;;;;;;;;;;5014624;28;20496;-81
2022/05/02 14:15:12;;;;;;;4.05;2.85;;;;;;;;;;5013523;28;20041;-81
2022/05/02 14:17:49;;;;;;;3.40;2.88;;;;;;;;;;5007745;28;20041;-81
2022/05/02 14:20:21;;;;;;;4.05;3.00;;;;;;;;;;4996101;28;20041;-79
2022/05/02 14:22:58;;;;;;;3.13;2.63;;;;;;;;;;5009019;28;20027;-81
2022/05/02 14:25:27;;;;;;;3.65;2.88;;;;;;;;;;5001280;28;20042;-81
2022/05/02 14:27:55;;;;;;;4.90;2.55;;;;;;;;;;5015908;28;20022;-81
2022/05/02 14:30:24;;;;;;;4.82;3.00;;;;;;;;;;4989852;28;20056;-81
2022/05/02 14:32:50;;;;;;;3.40;2.72;;;;;;;;;;5010842;28;20034;-81
2022/05/02 14:35:26;;;;;;;5.65;2.90;;;;;;;;;;5012118;28;20040;-80
2022/05/02 14:37:53;;;;;;;9.82;3.20;;;;;;;;;;5016895;28;20499;-82
2022/05/02 14:40:19;;;;;;;12.15;3.90;;;;;;;;;;5015909;28;20542;-79
2022/05/02 14:42:45;;;;;;;6.85;3.33;;;;;;;;;;5016641;28;20056;-80
2022/05/02 14:45:13;;;;;;;5.93;3.35;;;;;;;;;;4997558;28;20400;-81
2022/05/02 14:47:41;;;;;;;3.42;3.13;;;;;;;;;;5015151;28;20106;-81
2022/05/02 14:50:09;;;;;;;7.90;3.88;;;;;;;;;;5009767;28;20503;-81
2022/05/02 14:52:39;;;;;;;4.63;3.20;;;;;;;;;;5055269;22;20046;-81
2022/05/02 14:55:08;;;;;;;5.18;3.40;;;;;;;;;;5007838;28;20022;-80
2022/05/02 14:57:35;;;;;;;5.22;3.67;;;;;;;;;;5004920;28;20113;-80
2022/05/02 15:00:11;;;;;;;3.83;3.20;;;;;;;;;;5014411;28;20018;-78
2022/05/02 15:02:37;;;;;;;3.25;2.95;;;;;;;;;;4979824;28;20031;-79
2022/05/02 15:05:07;;;;;;;2.80;2.60;;;;;;;;;;5010549;28;20077;-80
2022/05/02 15:07:55;;;;;;;5.65;2.97;;;;;;;;;;4977784;28;20022;-80
2022/05/02 15:10:26;;;;;;;5.53;3.03;;;;;;;;;;5002799;28;20442;-80
2022/05/02 15:13:31;;;;;;;3.88;2.92;;;;;;;;;;5012700;28;20030;-81
2022/05/02 15:16:28;;;;;;;4.70;3.28;;;;;;;;;;4998283;28;20033;-82
2022/05/02 15:19:36;;;;;;;4.68;3.25;;;;;;;;;;4988882;28;20049;-81
2022/05/02 15:22:10;;;;;;;4.55;2.50;;;;;;;;;;4997717;28;20448;-81
2022/05/02 15:38:53;;;;;;;6.35;3.08;;;;;;;;;;5017443;28;20033;-82
2022/05/02 15:41:42;;;;;;;3.60;2.95;;;;;;;;;;5016547;28;20468;-81
2022/05/02 15:44:14;;;;;;;3.50;3.10;;;;;;;;;;4995875;28;20053;-80
2022/05/02 15:47:07;;;;;;;4.53;3.05;;;;;;;;;;5017574;28;20118;-81
2022/05/02 15:49:38;;;;;;;3.78;3.15;;;;;;;;;;4978404;28;20038;-80
2022/05/02 15:52:05;;;;;;;3.42;3.13;;;;;;;;;;4984469;28;20476;-81
2022/05/02 15:54:30;;;;;;;5.05;3.55;;;;;;;;;;4993028;28;20109;-81
2022/05/02 15:56:58;;;;;;;4.50;3.60;;;;;;;;;;4997702;28;20514;-79
2022/05/02 15:59:33;;;;;;;7.30;3.65;;;;;;;;;;4997671;28;20025;-83
2022/05/02 16:02:04;;;;;;;8.93;4.18;;;;;;;;;;4997207;28;20527;-81
2022/05/02 16:04:36;;;;;;;4.55;3.78;;;;;;;;;;5017398;28;20033;-80